Aviation Digital Data Service (ADDS)

Output produced by METARs form (1937 UTC 25 March 2017)
found at http://www.aviationweather.gov/adds/metars/
 
LWOH 251930Z 12003KT 9999 FEW035 14/06 Q1019
TAF LWOH 251730Z 2518/2618 VRB02KT 9999 FEW050 SCT090 
     TEMPO 2612/2618 20010KT RA BKN030 OVC040
       
LWSK 251930Z 03008KT CAVOK 15/06 Q1017 NOSIG
TAF LWSK 251730Z 2518/2618 03012KT CAVOK 
     BECMG 2523/2601 VRB02KT 9999 FEW040 SCT090 
     TEMPO 2612/2618 34015G25KT RA SCT030 OVC045
       
LWOH 251930Z 12003KT 9999 FEW035 14/06 Q1019
TAF LWOH 251730Z 2518/2618 VRB02KT 9999 FEW050 SCT090 
     TEMPO 2612/2618 20010KT RA BKN030 OVC040
       
LWSK 251930Z 03008KT CAVOK 15/06 Q1017 NOSIG
TAF LWSK 251730Z 2518/2618 03012KT CAVOK 
     BECMG 2523/2601 VRB02KT 9999 FEW040 SCT090 
     TEMPO 2612/2618 34015G25KT RA SCT030 OVC045